Liberty, North Carolina
Current Conditions -  °F | °C
As of 6:55 PM on Friday 31 Oct 2014 (Local Time) from K5W8 Reporting Station
Overcast Overcast  
Wind Chill: 51°   Ceiling: 7000
Heat Index: 51°   Visibility: 10mi
Dew Point: 47°   Wind: 0mph
Humidity: 87%   Direction: NA
Pressure: 29.81"   Gusts: NA
Location:  35.85°N, 79.57°W
Report Text: K5W8 312255Z AUTO 00000KT 10SM SCT050 OVC070 11/09 A2981 RMK AO2 T01060085
Loading
Personal Weather Stations






























Interactive Weather Map
Tropical Storm Tracking
New forecast layout! Learn more

10-Day Weather Forecast

Advertisements
Track Severe Weather on mobile